sensor_id;sensor_type;location;lat;lon;timestamp;pressure;altitude;pressure_sealevel;temperature;humidity
51031;BME280;37058;41.442;23.240;2023-03-26T00:01:20;99764.84;;;12.56;67.94
51031;BME280;37058;41.442;23.240;2023-03-26T00:03:47;99757.72;;;12.50;68.16
51031;BME280;37058;41.442;23.240;2023-03-26T00:06:21;99760.81;;;12.33;69.32
51031;BME280;37058;41.442;23.240;2023-03-26T00:08:51;99757.81;;;12.34;69.29
51031;BME280;37058;41.442;23.240;2023-03-26T00:11:19;99753.16;;;12.30;69.60
51031;BME280;37058;41.442;23.240;2023-03-26T00:13:46;99759.72;;;12.34;69.27
51031;BME280;37058;41.442;23.240;2023-03-26T00:16:17;99761.66;;;12.33;69.62
51031;BME280;37058;41.442;23.240;2023-03-26T00:18:45;99763.31;;;12.24;69.74
51031;BME280;37058;41.442;23.240;2023-03-26T00:21:17;99753.72;;;12.27;69.81
51031;BME280;37058;41.442;23.240;2023-03-26T00:23:46;99767.19;;;12.13;70.67
51031;BME280;37058;41.442;23.240;2023-03-26T00:26:14;99767.19;;;12.13;70.66
51031;BME280;37058;41.442;23.240;2023-03-26T00:28:42;99764.78;;;11.91;71.46
51031;BME280;37058;41.442;23.240;2023-03-26T00:31:12;99779.56;;;11.90;71.50
51031;BME280;37058;41.442;23.240;2023-03-26T00:33:39;99767.78;;;11.89;71.16
51031;BME280;37058;41.442;23.240;2023-03-26T00:36:14;99773.25;;;11.84;71.89
51031;BME280;37058;41.442;23.240;2023-03-26T00:38:43;99774.06;;;11.80;71.89
51031;BME280;37058;41.442;23.240;2023-03-26T00:41:13;99762.34;;;11.69;72.45
51031;BME280;37058;41.442;23.240;2023-03-26T00:43:49;99767.53;;;11.65;72.71
51031;BME280;37058;41.442;23.240;2023-03-26T00:46:16;99776.56;;;11.61;72.94
51031;BME280;37058;41.442;23.240;2023-03-26T00:48:43;99789.13;;;11.57;73.31
51031;BME280;37058;41.442;23.240;2023-03-26T00:51:10;99793.81;;;11.51;73.40
51031;BME280;37058;41.442;23.240;2023-03-26T00:53:37;99787.78;;;11.44;74.04
51031;BME280;37058;41.442;23.240;2023-03-26T00:56:05;99794.34;;;11.38;74.07
51031;BME280;37058;41.442;23.240;2023-03-26T00:58:31;99790.81;;;11.37;73.99
51031;BME280;37058;41.442;23.240;2023-03-26T01:01:05;99791.31;;;11.19;75.31
51031;BME280;37058;41.442;23.240;2023-03-26T01:03:34;99788.06;;;11.17;75.39
51031;BME280;37058;41.442;23.240;2023-03-26T01:06:04;99779.31;;;11.10;75.63
51031;BME280;37058;41.442;23.240;2023-03-26T01:08:46;99776.03;;;11.13;75.82
51031;BME280;37058;41.442;23.240;2023-03-26T01:14:18;99791.59;;;11.12;75.55
51031;BME280;37058;41.442;23.240;2023-03-26T01:16:50;99801.16;;;11.10;74.95
51031;BME280;37058;41.442;23.240;2023-03-26T01:20:05;99832.03;;;11.05;74.90
51031;BME280;37058;41.442;23.240;2023-03-26T01:22:45;99839.38;;;10.94;75.78
51031;BME280;37058;41.442;23.240;2023-03-26T01:25:11;99840.75;;;10.92;76.23
51031;BME280;37058;41.442;23.240;2023-03-26T01:27:51;99823.50;;;10.91;76.53
51031;BME280;37058;41.442;23.240;2023-03-26T01:33:25;99830.38;;;10.99;77.09
51031;BME280;37058;41.442;23.240;2023-03-26T01:36:22;99830.09;;;10.95;77.35
51031;BME280;37058;41.442;23.240;2023-03-26T01:42:41;99817.81;;;10.98;77.69
51031;BME280;37058;41.442;23.240;2023-03-26T01:45:23;99820.28;;;10.99;77.61
51031;BME280;37058;41.442;23.240;2023-03-26T01:47:51;99821.34;;;10.98;77.83
51031;BME280;37058;41.442;23.240;2023-03-26T01:50:17;99819.72;;;11.02;77.85
51031;BME280;37058;41.442;23.240;2023-03-26T01:52:43;99815.63;;;11.05;78.33
51031;BME280;37058;41.442;23.240;2023-03-26T01:55:10;99825.47;;;11.06;78.96
51031;BME280;37058;41.442;23.240;2023-03-26T01:58:07;99823.28;;;11.08;78.28
51031;BME280;37058;41.442;23.240;2023-03-26T02:01:26;99832.31;;;11.09;77.61
51031;BME280;37058;41.442;23.240;2023-03-26T02:04:31;99838.06;;;11.07;77.09
51031;BME280;37058;41.442;23.240;2023-03-26T02:07:16;99828.75;;;11.08;76.85
51031;BME280;37058;41.442;23.240;2023-03-26T02:09:50;99834.50;;;11.06;76.94
51031;BME280;37058;41.442;23.240;2023-03-26T02:12:20;99842.72;;;11.06;76.91
51031;BME280;37058;41.442;23.240;2023-03-26T02:14:47;99832.03;;;11.05;77.31
51031;BME280;37058;41.442;23.240;2023-03-26T02:17:13;99837.25;;;11.06;77.38
51031;BME280;37058;41.442;23.240;2023-03-26T02:19:39;99831.78;;;11.06;77.44
51031;BME280;37058;41.442;23.240;2023-03-26T02:22:09;99835.03;;;11.09;77.51
51031;BME280;37058;41.442;23.240;2023-03-26T02:24:38;99840.50;;;11.03;77.50
51031;BME280;37058;41.442;23.240;2023-03-26T02:27:05;99835.56;;;11.00;77.43
51031;BME280;37058;41.442;23.240;2023-03-26T02:29:36;99848.16;;;10.96;77.55
51031;BME280;37058;41.442;23.240;2023-03-26T02:32:07;99848.97;;;10.97;77.36
51031;BME280;37058;41.442;23.240;2023-03-26T02:34:33;99849.53;;;10.99;77.25
51031;BME280;37058;41.442;23.240;2023-03-26T02:36:59;99842.13;;;10.99;77.44
51031;BME280;37058;41.442;23.240;2023-03-26T02:39:25;99843.78;;;11.00;77.88
51031;BME280;37058;41.442;23.240;2023-03-26T02:41:52;99838.84;;;11.02;77.57
51031;BME280;37058;41.442;23.240;2023-03-26T02:44:18;99841.84;;;10.96;77.87
51031;BME280;37058;41.442;23.240;2023-03-26T02:46:43;99859.06;;;10.96;77.64
51031;BME280;37058;41.442;23.240;2023-03-26T02:49:09;99851.94;;;10.95;77.77
51031;BME280;37058;41.442;23.240;2023-03-26T02:51:35;99854.69;;;10.95;77.84
51031;BME280;37058;41.442;23.240;2023-03-26T02:54:03;99855.78;;;10.94;78.12
51031;BME280;37058;41.442;23.240;2023-03-26T02:56:29;99851.13;;;10.90;78.56
51031;BME280;37058;41.442;23.240;2023-03-26T02:58:55;99859.03;;;10.91;78.75
51031;BME280;37058;41.442;23.240;2023-03-26T03:01:21;99863.41;;;10.87;78.95
51031;BME280;37058;41.442;23.240;2023-03-26T03:03:47;99859.59;;;10.93;78.68
51031;BME280;37058;41.442;23.240;2023-03-26T03:06:15;99856.88;;;10.98;78.61
51031;BME280;37058;41.442;23.240;2023-03-26T03:08:44;99868.66;;;10.99;78.47
51031;BME280;37058;41.442;23.240;2023-03-26T03:11:17;99857.97;;;10.97;77.95
51031;BME280;37058;41.442;23.240;2023-03-26T03:13:44;99865.09;;;11.03;77.66
51031;BME280;37058;41.442;23.240;2023-03-26T03:16:10;99877.13;;;11.07;77.42
51031;BME280;37058;41.442;23.240;2023-03-26T03:18:36;99876.03;;;11.14;77.16
51031;BME280;37058;41.442;23.240;2023-03-26T03:21:03;99878.25;;;11.12;76.89
51031;BME280;37058;41.442;23.240;2023-03-26T03:23:30;99885.91;;;11.15;76.52
51031;BME280;37058;41.442;23.240;2023-03-26T03:25:57;99885.59;;;11.11;76.66
51031;BME280;37058;41.442;23.240;2023-03-26T03:28:24;99879.59;;;11.04;76.39
51031;BME280;37058;41.442;23.240;2023-03-26T03:30:50;99886.94;;;10.98;76.78
51031;BME280;37058;41.442;23.240;2023-03-26T03:33:22;99872.75;;;10.96;76.65
51031;BME280;37058;41.442;23.240;2023-03-26T03:35:49;99883.91;;;10.95;76.44
51031;BME280;37058;41.442;23.240;2023-03-26T03:38:18;99886.63;;;10.90;76.56
51031;BME280;37058;41.442;23.240;2023-03-26T03:40:44;99906.81;;;10.83;76.85
51031;BME280;37058;41.442;23.240;2023-03-26T03:43:10;99897.50;;;10.74;77.33
51031;BME280;37058;41.442;23.240;2023-03-26T03:45:36;99894.78;;;10.74;77.08
51031;BME280;37058;41.442;23.240;2023-03-26T03:48:02;99897.22;;;10.76;77.13
51031;BME280;37058;41.442;23.240;2023-03-26T03:50:28;99894.78;;;10.74;77.09
51031;BME280;37058;41.442;23.240;2023-03-26T03:52:54;99903.78;;;10.75;77.10
51031;BME280;37058;41.442;23.240;2023-03-26T03:55:20;99906.75;;;10.68;77.23
51031;BME280;37058;41.442;23.240;2023-03-26T03:57:48;99912.22;;;10.73;76.85
51031;BME280;37058;41.442;23.240;2023-03-26T04:00:15;99916.59;;;10.69;76.96
51031;BME280;37058;41.442;23.240;2023-03-26T04:02:41;99920.16;;;10.70;76.78
51031;BME280;37058;41.442;23.240;2023-03-26T04:05:07;99921.53;;;10.72;76.28
51031;BME280;37058;41.442;23.240;2023-03-26T04:07:36;99917.97;;;10.72;76.36
51031;BME280;37058;41.442;23.240;2023-03-26T04:10:02;99926.16;;;10.72;76.09
51031;BME280;37058;41.442;23.240;2023-03-26T04:12:30;99927.25;;;10.71;76.01
51031;BME280;37058;41.442;23.240;2023-03-26T04:14:57;99934.38;;;10.72;75.73
51031;BME280;37058;41.442;23.240;2023-03-26T04:17:23;99935.16;;;10.67;75.66
51031;BME280;37058;41.442;23.240;2023-03-26T04:19:51;99935.41;;;10.66;75.63
51031;BME280;37058;41.442;23.240;2023-03-26T04:22:20;99936.75;;;10.63;75.43
51031;BME280;37058;41.442;23.240;2023-03-26T04:24:46;99947.69;;;10.63;75.04
51031;BME280;37058;41.442;23.240;2023-03-26T04:27:17;99954.00;;;10.63;74.88
51031;BME280;37058;41.442;23.240;2023-03-26T04:29:47;99947.69;;;10.63;75.34
51031;BME280;37058;41.442;23.240;2023-03-26T04:32:25;99951.28;;;10.69;74.91
51031;BME280;37058;41.442;23.240;2023-03-26T04:34:57;99943.63;;;10.71;74.81
51031;BME280;37058;41.442;23.240;2023-03-26T04:37:32;99948.00;;;10.67;74.96
51031;BME280;37058;41.442;23.240;2023-03-26T04:40:13;99946.44;;;10.86;74.66
51031;BME280;37058;41.442;23.240;2023-03-26T04:42:39;99953.81;;;11.79;71.25
51031;BME280;37058;41.442;23.240;2023-03-26T04:45:14;99947.88;;;12.13;68.60
51031;BME280;37058;41.442;23.240;2023-03-26T04:47:41;99957.72;;;13.25;64.63
51031;BME280;37058;41.442;23.240;2023-03-26T04:50:09;99946.22;;;13.73;61.92
51031;BME280;37058;41.442;23.240;2023-03-26T04:52:36;99953.88;;;14.98;58.05
51031;BME280;37058;41.442;23.240;2023-03-26T04:55:24;99966.94;;;16.57;53.09
51031;BME280;37058;41.442;23.240;2023-03-26T04:57:56;99962.91;;;16.96;50.85
51031;BME280;37058;41.442;23.240;2023-03-26T05:00:25;99978.22;;;17.44;49.19
51031;BME280;37058;41.442;23.240;2023-03-26T05:02:52;99984.53;;;19.24;45.49
51031;BME280;37058;41.442;23.240;2023-03-26T05:05:21;99984.47;;;20.98;41.25
51031;BME280;37058;41.442;23.240;2023-03-26T05:07:47;99990.97;;;22.34;37.78
51031;BME280;37058;41.442;23.240;2023-03-26T05:10:14;99992.75;;;23.82;35.23
51031;BME280;37058;41.442;23.240;2023-03-26T05:12:41;99990.66;;;25.23;33.13
51031;BME280;37058;41.442;23.240;2023-03-26T05:15:09;99991.28;;;26.42;30.78
51031;BME280;37058;41.442;23.240;2023-03-26T05:17:35;99990.00;;;26.78;29.81
51031;BME280;37058;41.442;23.240;2023-03-26T05:20:18;99987.16;;;24.95;31.89
51031;BME280;37058;41.442;23.240;2023-03-26T05:22:46;99990.59;;;23.39;34.25
51031;BME280;37058;41.442;23.240;2023-03-26T05:25:12;99986.28;;;22.25;33.51
51031;BME280;37058;41.442;23.240;2023-03-26T05:27:38;99992.31;;;21.35;34.82
51031;BME280;37058;41.442;23.240;2023-03-26T05:30:06;99981.13;;;20.75;35.59
51031;BME280;37058;41.442;23.240;2023-03-26T05:32:32;99996.22;;;20.40;36.07
51031;BME280;37058;41.442;23.240;2023-03-26T05:34:59;99998.69;;;19.89;36.96
51031;BME280;37058;41.442;23.240;2023-03-26T05:37:28;100008.78;;;19.67;37.79
51031;BME280;37058;41.442;23.240;2023-03-26T05:39:56;100010.19;;;19.56;37.37
51031;BME280;37058;41.442;23.240;2023-03-26T05:42:22;100005.28;;;19.53;37.95
51031;BME280;37058;41.442;23.240;2023-03-26T05:44:48;100009.97;;;19.44;37.75
51031;BME280;37058;41.442;23.240;2023-03-26T05:47:14;100010.13;;;19.39;37.71
51031;BME280;37058;41.442;23.240;2023-03-26T05:49:40;100015.81;;;19.34;37.58
51031;BME280;37058;41.442;23.240;2023-03-26T05:52:07;100015.81;;;19.34;37.34
51031;BME280;37058;41.442;23.240;2023-03-26T05:54:32;100010.44;;;19.28;37.12
51031;BME280;37058;41.442;23.240;2023-03-26T05:56:58;100006.03;;;19.27;37.28
51031;BME280;37058;41.442;23.240;2023-03-26T05:59:25;100008.31;;;19.25;36.74
51031;BME280;37058;41.442;23.240;2023-03-26T06:01:51;100018.94;;;19.41;37.21
51031;BME280;37058;41.442;23.240;2023-03-26T06:04:19;100014.22;;;19.41;36.75
51031;BME280;37058;41.442;23.240;2023-03-26T06:06:46;100036.06;;;19.52;36.46
51031;BME280;37058;41.442;23.240;2023-03-26T06:09:12;100040.19;;;19.63;36.69
51031;BME280;37058;41.442;23.240;2023-03-26T06:11:39;100040.84;;;19.60;36.48
51031;BME280;37058;41.442;23.240;2023-03-26T06:14:05;100045.38;;;19.64;36.81
51031;BME280;37058;41.442;23.240;2023-03-26T06:16:32;100038.75;;;19.74;36.68
51031;BME280;37058;41.442;23.240;2023-03-26T06:21:25;100048.88;;;19.70;35.43
51031;BME280;37058;41.442;23.240;2023-03-26T06:23:51;100049.28;;;19.55;35.99
51031;BME280;37058;41.442;23.240;2023-03-26T06:26:17;100046.19;;;19.56;36.41
51031;BME280;37058;41.442;23.240;2023-03-26T06:28:43;100058.97;;;19.75;36.02
51031;BME280;37058;41.442;23.240;2023-03-26T06:31:09;100060.50;;;19.98;35.52
51031;BME280;37058;41.442;23.240;2023-03-26T06:33:35;100063.28;;;20.16;34.86
51031;BME280;37058;41.442;23.240;2023-03-26T06:36:01;100070.13;;;20.62;34.80
51031;BME280;37058;41.442;23.240;2023-03-26T06:38:27;100067.34;;;21.64;33.32
51031;BME280;37058;41.442;23.240;2023-03-26T06:40:53;100065.16;;;24.31;29.72
51031;BME280;37058;41.442;23.240;2023-03-26T06:43:19;100054.47;;;27.48;25.77
51031;BME280;37058;41.442;23.240;2023-03-26T06:45:49;100054.16;;;30.07;22.60
51031;BME280;37058;41.442;23.240;2023-03-26T06:48:15;100062.19;;;31.21;20.51
51031;BME280;37058;41.442;23.240;2023-03-26T06:50:41;100063.38;;;31.78;19.92
51031;BME280;37058;41.442;23.240;2023-03-26T06:53:09;100067.88;;;32.88;18.74
51031;BME280;37058;41.442;23.240;2023-03-26T06:55:35;100060.78;;;34.46;17.47
51031;BME280;37058;41.442;23.240;2023-03-26T06:58:01;100068.69;;;35.90;16.41
51031;BME280;37058;41.442;23.240;2023-03-26T07:00:27;100062.69;;;37.37;14.99
51031;BME280;37058;41.442;23.240;2023-03-26T07:02:53;100058.38;;;37.94;15.04
51031;BME280;37058;41.442;23.240;2023-03-26T07:05:19;100065.34;;;38.23;14.46
51031;BME280;37058;41.442;23.240;2023-03-26T07:07:46;100053.69;;;38.59;13.78
51031;BME280;37058;41.442;23.240;2023-03-26T07:10:12;100060.22;;;38.85;13.86
51031;BME280;37058;41.442;23.240;2023-03-26T07:12:38;100042.72;;;36.88;14.79
51031;BME280;37058;41.442;23.240;2023-03-26T07:15:05;100041.94;;;30.76;19.49
51031;BME280;37058;41.442;23.240;2023-03-26T07:17:31;100042.81;;;27.45;23.39
51031;BME280;37058;41.442;23.240;2023-03-26T07:19:57;100047.88;;;25.61;25.12
51031;BME280;37058;41.442;23.240;2023-03-26T07:22:24;100030.78;;;24.15;26.97
51031;BME280;37058;41.442;23.240;2023-03-26T07:24:50;100028.34;;;22.90;29.09
51031;BME280;37058;41.442;23.240;2023-03-26T07:27:53;100036.50;;;22.08;30.51
51031;BME280;37058;41.442;23.240;2023-03-26T07:33:45;100028.16;;;20.72;33.40
51031;BME280;37058;41.442;23.240;2023-03-26T07:36:31;100026.72;;;20.40;33.41
51031;BME280;37058;41.442;23.240;2023-03-26T07:39:08;100021.34;;;20.00;33.72
51031;BME280;37058;41.442;23.240;2023-03-26T07:41:59;100026.38;;;19.72;34.93
51031;BME280;37058;41.442;23.240;2023-03-26T07:45:23;100010.53;;;19.63;34.21
51031;BME280;37058;41.442;23.240;2023-03-26T07:47:51;100018.19;;;19.58;34.61
51031;BME280;37058;41.442;23.240;2023-03-26T07:50:21;100015.41;;;19.58;34.75
51031;BME280;37058;41.442;23.240;2023-03-26T07:52:49;100020.13;;;19.57;35.30
51031;BME280;37058;41.442;23.240;2023-03-26T07:55:16;100026.50;;;19.58;35.26
51031;BME280;37058;41.442;23.240;2023-03-26T08:00:25;100019.88;;;19.76;33.90
51031;BME280;37058;41.442;23.240;2023-03-26T08:05:55;100017.44;;;20.09;36.09
51031;BME280;37058;41.442;23.240;2023-03-26T08:08:50;100024.28;;;20.29;36.05
51031;BME280;37058;41.442;23.240;2023-03-26T08:19:50;100016.25;;;20.63;34.74
51031;BME280;37058;41.442;23.240;2023-03-26T08:22:30;100014.63;;;20.70;34.82
51031;BME280;37058;41.442;23.240;2023-03-26T08:25:25;100012.00;;;20.74;34.58
51031;BME280;37058;41.442;23.240;2023-03-26T08:28:15;100013.94;;;20.73;34.17
51031;BME280;37058;41.442;23.240;2023-03-26T08:30:45;100014.44;;;20.75;33.94
51031;BME280;37058;41.442;23.240;2023-03-26T08:33:19;100013.50;;;20.71;34.28
51031;BME280;37058;41.442;23.240;2023-03-26T08:35:46;100007.09;;;20.71;34.09
51031;BME280;37058;41.442;23.240;2023-03-26T08:38:17;99998.81;;;20.62;34.70
51031;BME280;37058;41.442;23.240;2023-03-26T08:50:42;99987.44;;;20.93;33.01
51031;BME280;37058;41.442;23.240;2023-03-26T09:08:14;99966.88;;;21.24;32.10
51031;BME280;37058;41.442;23.240;2023-03-26T09:17:28;99967.34;;;21.26;32.09
51031;BME280;37058;41.442;23.240;2023-03-26T09:35:49;99942.56;;;21.21;28.17
51031;BME280;37058;41.442;23.240;2023-03-26T09:38:48;99935.09;;;21.13;27.76
51031;BME280;37058;41.442;23.240;2023-03-26T09:41:40;99933.03;;;21.01;26.72
51031;BME280;37058;41.442;23.240;2023-03-26T09:44:22;99930.97;;;20.89;28.39
51031;BME280;37058;41.442;23.240;2023-03-26T10:10:54;99893.44;;;21.13;23.79
51031;BME280;37058;41.442;23.240;2023-03-26T10:31:16;99859.81;;;21.35;19.42
51031;BME280;37058;41.442;23.240;2023-03-26T10:36:41;99849.19;;;21.37;19.18
51031;BME280;37058;41.442;23.240;2023-03-26T10:50:03;99842.75;;;21.46;17.57
51031;BME280;37058;41.442;23.240;2023-03-26T10:52:58;99833.00;;;21.39;17.20
51031;BME280;37058;41.442;23.240;2023-03-26T10:55:41;99837.75;;;21.39;17.68
51031;BME280;37058;41.442;23.240;2023-03-26T10:58:20;99830.50;;;21.47;17.73
51031;BME280;37058;41.442;23.240;2023-03-26T11:01:12;99817.56;;;21.51;18.13
51031;BME280;37058;41.442;23.240;2023-03-26T11:09:26;99821.03;;;21.48;18.98
51031;BME280;37058;41.442;23.240;2023-03-26T11:12:10;99806.19;;;21.43;19.53
51031;BME280;37058;41.442;23.240;2023-03-26T11:15:23;99804.13;;;21.53;20.15
51031;BME280;37058;41.442;23.240;2023-03-26T11:21:15;99806.97;;;21.65;20.17
51031;BME280;37058;41.442;23.240;2023-03-26T11:26:54;99796.78;;;21.69;19.69
51031;BME280;37058;41.442;23.240;2023-03-26T11:32:26;99790.53;;;21.72;21.54
51031;BME280;37058;41.442;23.240;2023-03-26T11:37:54;99773.19;;;21.75;21.44
51031;BME280;37058;41.442;23.240;2023-03-26T11:40:30;99774.47;;;21.78;21.42
51031;BME280;37058;41.442;23.240;2023-03-26T11:43:01;99778.75;;;21.75;21.32
51031;BME280;37058;41.442;23.240;2023-03-26T11:45:33;99769.13;;;21.73;21.07
51031;BME280;37058;41.442;23.240;2023-03-26T11:48:31;99768.28;;;21.72;22.14
51031;BME280;37058;41.442;23.240;2023-03-26T11:51:31;99769.72;;;21.78;22.03
51031;BME280;37058;41.442;23.240;2023-03-26T11:54:03;99768.69;;;21.83;21.84
51031;BME280;37058;41.442;23.240;2023-03-26T11:59:30;99753.66;;;21.96;22.21
51031;BME280;37058;41.442;23.240;2023-03-26T12:02:23;99748.56;;;21.98;24.21
51031;BME280;37058;41.442;23.240;2023-03-26T12:05:21;99752.88;;;22.08;24.73
51031;BME280;37058;41.442;23.240;2023-03-26T12:08:01;99749.97;;;22.17;24.54
51031;BME280;37058;41.442;23.240;2023-03-26T12:10:38;99747.47;;;22.24;24.75
51031;BME280;37058;41.442;23.240;2023-03-26T12:13:52;99743.59;;;22.16;24.71
51031;BME280;37058;41.442;23.240;2023-03-26T12:16:21;99738.84;;;22.04;24.48
51031;BME280;37058;41.442;23.240;2023-03-26T12:19:03;99738.34;;;22.02;24.92
51031;BME280;37058;41.442;23.240;2023-03-26T12:21:47;99740.00;;;22.03;24.49
51031;BME280;37058;41.442;23.240;2023-03-26T12:24:34;99736.28;;;22.12;25.47
51031;BME280;37058;41.442;23.240;2023-03-26T12:30:18;99727.19;;;22.23;25.13
51031;BME280;37058;41.442;23.240;2023-03-26T12:32:47;99730.63;;;22.33;25.07
51031;BME280;37058;41.442;23.240;2023-03-26T12:35:25;99726.47;;;22.39;24.91
51031;BME280;37058;41.442;23.240;2023-03-26T12:37:54;99723.94;;;22.46;25.45
51031;BME280;37058;41.442;23.240;2023-03-26T12:40:34;99719.75;;;22.52;24.97
51031;BME280;37058;41.442;23.240;2023-03-26T12:43:24;99713.00;;;22.53;24.35
51031;BME280;37058;41.442;23.240;2023-03-26T12:45:55;99720.06;;;22.50;24.06
51031;BME280;37058;41.442;23.240;2023-03-26T12:48:23;99710.22;;;22.53;25.07
51031;BME280;37058;41.442;23.240;2023-03-26T12:53:57;99704.63;;;22.65;24.99
51031;BME280;37058;41.442;23.240;2023-03-26T12:56:36;99701.59;;;22.70;24.59
51031;BME280;37058;41.442;23.240;2023-03-26T13:16:54;99675.22;;;22.92;25.88
51031;BME280;37058;41.442;23.240;2023-03-26T13:20:03;99656.91;;;22.91;25.33
51031;BME280;37058;41.442;23.240;2023-03-26T13:26:04;99663.53;;;22.87;24.75
51031;BME280;37058;41.442;23.240;2023-03-26T13:42:48;99656.81;;;22.76;25.10
51031;BME280;37058;41.442;23.240;2023-03-26T13:48:01;99650.53;;;22.79;24.34
51031;BME280;37058;41.442;23.240;2023-03-26T13:50:32;99642.56;;;22.77;24.63
51031;BME280;37058;41.442;23.240;2023-03-26T13:53:16;99650.91;;;22.77;24.47
51031;BME280;37058;41.442;23.240;2023-03-26T13:55:47;99642.19;;;22.79;24.18
51031;BME280;37058;41.442;23.240;2023-03-26T13:58:43;99635.47;;;22.80;24.44
51031;BME280;37058;41.442;23.240;2023-03-26T14:01:21;99634.31;;;22.81;23.49
51031;BME280;37058;41.442;23.240;2023-03-26T14:04:27;99632.78;;;22.83;24.01
51031;BME280;37058;41.442;23.240;2023-03-26T14:07:12;99635.56;;;22.83;23.85
51031;BME280;37058;41.442;23.240;2023-03-26T14:10:03;99635.94;;;22.82;23.14
51031;BME280;37058;41.442;23.240;2023-03-26T14:13:01;99636.84;;;22.86;23.76
51031;BME280;37058;41.442;23.240;2023-03-26T14:24:22;99638.81;;;22.85;23.54
51031;BME280;37058;41.442;23.240;2023-03-26T14:44:49;99632.75;;;22.67;22.65
51031;BME280;37058;41.442;23.240;2023-03-26T14:47:22;99626.72;;;22.65;22.64
51031;BME280;37058;41.442;23.240;2023-03-26T14:52:53;99631.72;;;22.60;21.90
51031;BME280;37058;41.442;23.240;2023-03-26T15:07:28;99629.91;;;22.39;21.22
51031;BME280;37058;41.442;23.240;2023-03-26T15:10:56;99632.47;;;22.32;21.23
51031;BME280;37058;41.442;23.240;2023-03-26T15:19:37;99625.66;;;22.29;21.66
51031;BME280;37058;41.442;23.240;2023-03-26T15:34:29;99622.63;;;22.10;21.15
51031;BME280;37058;41.442;23.240;2023-03-26T15:43:13;99622.28;;;21.99;21.17
51031;BME280;37058;41.442;23.240;2023-03-26T15:52:18;99622.06;;;21.92;22.12
51031;BME280;37058;41.442;23.240;2023-03-26T15:55:00;99622.66;;;21.85;22.10
51031;BME280;37058;41.442;23.240;2023-03-26T15:57:50;99633.53;;;21.78;21.89
51031;BME280;37058;41.442;23.240;2023-03-26T16:00:27;99633.41;;;21.75;21.84
51031;BME280;37058;41.442;23.240;2023-03-26T16:03:31;99634.69;;;21.65;21.68
51031;BME280;37058;41.442;23.240;2023-03-26T16:09:12;99628.53;;;21.47;21.88
51031;BME280;37058;41.442;23.240;2023-03-26T16:12:32;99643.31;;;21.39;21.88
51031;BME280;37058;41.442;23.240;2023-03-26T16:15:31;99632.97;;;21.27;21.82
51031;BME280;37058;41.442;23.240;2023-03-26T16:24:14;99636.22;;;20.96;22.45
51031;BME280;37058;41.442;23.240;2023-03-26T16:27:06;99648.97;;;20.76;22.66
51031;BME280;37058;41.442;23.240;2023-03-26T16:30:46;99651.69;;;20.64;23.00
51031;BME280;37058;41.442;23.240;2023-03-26T16:32:53;99649.97;;;20.50;22.61
51031;BME280;37058;41.442;23.240;2023-03-26T16:38:23;99658.78;;;20.23;21.96
51031;BME280;37058;41.442;23.240;2023-03-26T16:41:26;99660.53;;;20.06;22.00
51031;BME280;37058;41.442;23.240;2023-03-26T16:47:10;99667.31;;;19.88;22.47
51031;BME280;37058;41.442;23.240;2023-03-26T16:49:57;99665.56;;;19.75;22.96
51031;BME280;37058;41.442;23.240;2023-03-26T16:53:04;99668.34;;;19.66;23.01
51031;BME280;37058;41.442;23.240;2023-03-26T16:58:44;99681.91;;;19.50;23.05
51031;BME280;37058;41.442;23.240;2023-03-26T17:01:51;99684.03;;;19.44;22.98
51031;BME280;37058;41.442;23.240;2023-03-26T17:04:27;99689.91;;;19.34;23.44
51031;BME280;37058;41.442;23.240;2023-03-26T17:07:15;99687.84;;;19.22;23.69
51031;BME280;37058;41.442;23.240;2023-03-26T17:10:21;99692.56;;;19.13;23.58
51031;BME280;37058;41.442;23.240;2023-03-26T17:13:10;99688.97;;;19.04;23.47
51031;BME280;37058;41.442;23.240;2023-03-26T17:16:11;99699.25;;;18.95;23.43
51031;BME280;37058;41.442;23.240;2023-03-26T17:19:13;99697.94;;;18.83;23.44
51031;BME280;37058;41.442;23.240;2023-03-26T17:24:50;99704.75;;;18.60;23.85
51031;BME280;37058;41.442;23.240;2023-03-26T17:27:34;99709.28;;;18.56;23.60
51031;BME280;37058;41.442;23.240;2023-03-26T17:35:44;99706.66;;;18.51;23.39
51031;BME280;37058;41.442;23.240;2023-03-26T17:40:54;99717.72;;;18.51;23.73
51031;BME280;37058;41.442;23.240;2023-03-26T17:43:49;99716.91;;;18.41;24.58
51031;BME280;37058;41.442;23.240;2023-03-26T17:46:38;99718.38;;;18.39;24.47
51031;BME280;37058;41.442;23.240;2023-03-26T17:54:38;99723.88;;;18.30;25.68
51031;BME280;37058;41.442;23.240;2023-03-26T17:57:39;99728.59;;;18.30;25.69
51031;BME280;37058;41.442;23.240;2023-03-26T18:00:13;99722.09;;;18.26;25.83
51031;BME280;37058;41.442;23.240;2023-03-26T18:03:16;99726.81;;;17.85;27.71
51031;BME280;37058;41.442;23.240;2023-03-26T18:05:45;99734.78;;;17.64;27.97
51031;BME280;37058;41.442;23.240;2023-03-26T18:08:39;99727.22;;;17.47;28.31
51031;BME280;37058;41.442;23.240;2023-03-26T18:14:39;99738.31;;;17.33;28.87
51031;BME280;37058;41.442;23.240;2023-03-26T18:17:09;99744.47;;;17.30;29.06
51031;BME280;37058;41.442;23.240;2023-03-26T18:19:54;99747.06;;;17.27;29.32
51031;BME280;37058;41.442;23.240;2023-03-26T18:22:25;99742.16;;;17.24;29.29
51031;BME280;37058;41.442;23.240;2023-03-26T18:24:58;99739.63;;;17.14;29.56
51031;BME280;37058;41.442;23.240;2023-03-26T18:27:35;99738.31;;;17.11;29.32
51031;BME280;37058;41.442;23.240;2023-03-26T18:33:13;99732.53;;;16.99;29.93
51031;BME280;37058;41.442;23.240;2023-03-26T18:35:52;99725.91;;;17.00;30.11
51031;BME280;37058;41.442;23.240;2023-03-26T18:38:22;99727.13;;;16.94;30.07
51031;BME280;37058;41.442;23.240;2023-03-26T18:40:50;99731.97;;;16.88;29.92